sensor_id;sensor_type;location;lat;lon;timestamp;P1;durP1;ratioP1;P2;durP2;ratioP2
5805;SDS011;2929;50.810;8.342;2023-02-28T00:00:32;3.77;;;1.70;;
5805;SDS011;2929;50.810;8.342;2023-02-28T00:03:00;4.23;;;2.00;;
5805;SDS011;2929;50.810;8.342;2023-02-28T00:05:28;2.13;;;1.90;;
5805;SDS011;2929;50.810;8.342;2023-02-28T00:07:55;3.43;;;2.33;;
5805;SDS011;2929;50.810;8.342;2023-02-28T00:10:23;1.87;;;1.53;;
5805;SDS011;2929;50.810;8.342;2023-02-28T00:12:53;5.80;;;2.10;;
5805;SDS011;2929;50.810;8.342;2023-02-28T00:15:22;3.60;;;1.77;;
5805;SDS011;2929;50.810;8.342;2023-02-28T00:17:50;1.63;;;1.53;;
5805;SDS011;2929;50.810;8.342;2023-02-28T00:20:18;3.03;;;1.80;;
5805;SDS011;2929;50.810;8.342;2023-02-28T00:22:46;1.97;;;1.50;;
5805;SDS011;2929;50.810;8.342;2023-02-28T00:25:15;2.90;;;1.87;;
5805;SDS011;2929;50.810;8.342;2023-02-28T00:27:44;5.60;;;1.77;;
5805;SDS011;2929;50.810;8.342;2023-02-28T00:30:13;3.00;;;1.87;;
5805;SDS011;2929;50.810;8.342;2023-02-28T00:32:42;1.37;;;1.20;;
5805;SDS011;2929;50.810;8.342;2023-02-28T00:35:09;3.30;;;1.73;;
5805;SDS011;2929;50.810;8.342;2023-02-28T00:37:37;2.20;;;1.67;;
5805;SDS011;2929;50.810;8.342;2023-02-28T00:40:05;2.83;;;2.60;;
5805;SDS011;2929;50.810;8.342;2023-02-28T00:42:36;6.93;;;1.90;;
5805;SDS011;2929;50.810;8.342;2023-02-28T00:45:04;3.00;;;1.57;;
5805;SDS011;2929;50.810;8.342;2023-02-28T00:47:33;2.90;;;1.77;;
5805;SDS011;2929;50.810;8.342;2023-02-28T00:50:00;4.03;;;2.00;;
5805;SDS011;2929;50.810;8.342;2023-02-28T00:52:27;3.10;;;1.80;;
5805;SDS011;2929;50.810;8.342;2023-02-28T00:54:54;5.23;;;1.83;;
5805;SDS011;2929;50.810;8.342;2023-02-28T00:57:21;2.10;;;1.73;;
5805;SDS011;2929;50.810;8.342;2023-02-28T00:59:48;1.93;;;1.20;;
5805;SDS011;2929;50.810;8.342;2023-02-28T01:02:15;5.00;;;2.13;;
5805;SDS011;2929;50.810;8.342;2023-02-28T01:04:44;3.33;;;1.80;;
5805;SDS011;2929;50.810;8.342;2023-02-28T01:07:12;7.63;;;2.40;;
5805;SDS011;2929;50.810;8.342;2023-02-28T01:09:39;12.03;;;4.53;;
5805;SDS011;2929;50.810;8.342;2023-02-28T01:12:06;8.20;;;2.97;;
5805;SDS011;2929;50.810;8.342;2023-02-28T01:14:34;5.20;;;2.80;;
5805;SDS011;2929;50.810;8.342;2023-02-28T01:17:01;12.00;;;3.57;;
5805;SDS011;2929;50.810;8.342;2023-02-28T01:19:28;8.60;;;3.40;;
5805;SDS011;2929;50.810;8.342;2023-02-28T01:21:56;3.03;;;1.97;;
5805;SDS011;2929;50.810;8.342;2023-02-28T01:24:26;2.43;;;1.83;;
5805;SDS011;2929;50.810;8.342;2023-02-28T01:26:53;2.10;;;1.90;;
5805;SDS011;2929;50.810;8.342;2023-02-28T01:29:20;6.03;;;1.80;;
5805;SDS011;2929;50.810;8.342;2023-02-28T01:31:47;6.70;;;2.20;;
5805;SDS011;2929;50.810;8.342;2023-02-28T01:34:14;5.53;;;1.90;;
5805;SDS011;2929;50.810;8.342;2023-02-28T01:36:41;2.03;;;1.83;;
5805;SDS011;2929;50.810;8.342;2023-02-28T01:39:11;4.93;;;2.37;;
5805;SDS011;2929;50.810;8.342;2023-02-28T01:41:38;3.50;;;2.20;;
5805;SDS011;2929;50.810;8.342;2023-02-28T01:44:06;3.17;;;2.07;;
5805;SDS011;2929;50.810;8.342;2023-02-28T01:46:49;3.33;;;2.23;;
5805;SDS011;2929;50.810;8.342;2023-02-28T01:49:16;5.07;;;2.50;;
5805;SDS011;2929;50.810;8.342;2023-02-28T01:51:44;4.23;;;2.40;;
5805;SDS011;2929;50.810;8.342;2023-02-28T01:54:18;4.07;;;2.20;;
5805;SDS011;2929;50.810;8.342;2023-02-28T01:56:50;2.60;;;2.40;;
5805;SDS011;2929;50.810;8.342;2023-02-28T01:59:22;2.30;;;2.10;;
5805;SDS011;2929;50.810;8.342;2023-02-28T02:01:54;2.43;;;2.23;;
5805;SDS011;2929;50.810;8.342;2023-02-28T02:04:21;3.33;;;2.60;;
5805;SDS011;2929;50.810;8.342;2023-02-28T02:06:52;5.47;;;2.40;;
5805;SDS011;2929;50.810;8.342;2023-02-28T02:09:21;3.73;;;2.60;;
5805;SDS011;2929;50.810;8.342;2023-02-28T02:11:48;2.60;;;2.40;;
5805;SDS011;2929;50.810;8.342;2023-02-28T02:17:14;3.77;;;2.03;;
5805;SDS011;2929;50.810;8.342;2023-02-28T02:20:07;2.40;;;1.90;;
5805;SDS011;2929;50.810;8.342;2023-02-28T02:23:01;2.47;;;2.10;;
5805;SDS011;2929;50.810;8.342;2023-02-28T02:25:50;2.40;;;2.17;;
5805;SDS011;2929;50.810;8.342;2023-02-28T02:28:24;3.63;;;2.00;;
5805;SDS011;2929;50.810;8.342;2023-02-28T02:31:09;3.43;;;2.20;;
5805;SDS011;2929;50.810;8.342;2023-02-28T02:37:10;3.70;;;2.43;;
5805;SDS011;2929;50.810;8.342;2023-02-28T02:39:51;2.27;;;2.07;;
5805;SDS011;2929;50.810;8.342;2023-02-28T02:42:25;3.00;;;2.43;;
5805;SDS011;2929;50.810;8.342;2023-02-28T02:44:58;3.13;;;1.87;;
5805;SDS011;2929;50.810;8.342;2023-02-28T02:47:30;2.03;;;1.90;;
5805;SDS011;2929;50.810;8.342;2023-02-28T02:50:02;3.00;;;2.10;;
5805;SDS011;2929;50.810;8.342;2023-02-28T02:52:38;2.93;;;2.17;;
5805;SDS011;2929;50.810;8.342;2023-02-28T02:55:09;3.70;;;2.20;;
5805;SDS011;2929;50.810;8.342;2023-02-28T02:57:40;2.53;;;2.03;;
5805;SDS011;2929;50.810;8.342;2023-02-28T03:00:13;8.27;;;2.60;;
5805;SDS011;2929;50.810;8.342;2023-02-28T03:02:42;3.03;;;2.40;;
5805;SDS011;2929;50.810;8.342;2023-02-28T03:05:13;11.67;;;2.60;;
5805;SDS011;2929;50.810;8.342;2023-02-28T03:07:45;2.53;;;1.97;;
5805;SDS011;2929;50.810;8.342;2023-02-28T03:10:26;3.57;;;2.63;;
5805;SDS011;2929;50.810;8.342;2023-02-28T03:12:57;2.43;;;1.87;;
5805;SDS011;2929;50.810;8.342;2023-02-28T03:15:44;2.80;;;2.17;;
5805;SDS011;2929;50.810;8.342;2023-02-28T03:18:22;1.90;;;1.57;;
5805;SDS011;2929;50.810;8.342;2023-02-28T03:20:57;2.73;;;2.30;;
5805;SDS011;2929;50.810;8.342;2023-02-28T03:23:32;3.37;;;2.20;;
5805;SDS011;2929;50.810;8.342;2023-02-28T03:26:10;2.33;;;2.00;;
5805;SDS011;2929;50.810;8.342;2023-02-28T03:28:46;2.43;;;2.13;;
5805;SDS011;2929;50.810;8.342;2023-02-28T03:31:23;2.13;;;1.93;;
5805;SDS011;2929;50.810;8.342;2023-02-28T03:33:55;2.40;;;2.10;;
5805;SDS011;2929;50.810;8.342;2023-02-28T03:36:28;2.13;;;1.93;;
5805;SDS011;2929;50.810;8.342;2023-02-28T03:38:59;2.87;;;2.33;;
5805;SDS011;2929;50.810;8.342;2023-02-28T03:41:31;2.73;;;2.23;;
5805;SDS011;2929;50.810;8.342;2023-02-28T03:44:05;3.40;;;2.10;;
5805;SDS011;2929;50.810;8.342;2023-02-28T03:46:40;2.33;;;2.13;;
5805;SDS011;2929;50.810;8.342;2023-02-28T03:49:12;2.40;;;2.20;;
5805;SDS011;2929;50.810;8.342;2023-02-28T03:51:43;4.03;;;2.90;;
5805;SDS011;2929;50.810;8.342;2023-02-28T03:54:17;2.57;;;2.10;;
5805;SDS011;2929;50.810;8.342;2023-02-28T03:56:48;4.13;;;2.10;;
5805;SDS011;2929;50.810;8.342;2023-02-28T03:59:20;2.93;;;2.47;;
5805;SDS011;2929;50.810;8.342;2023-02-28T04:01:50;3.80;;;2.10;;
5805;SDS011;2929;50.810;8.342;2023-02-28T04:04:18;5.23;;;2.53;;
5805;SDS011;2929;50.810;8.342;2023-02-28T04:06:45;2.90;;;2.50;;
5805;SDS011;2929;50.810;8.342;2023-02-28T04:09:16;3.37;;;2.50;;
5805;SDS011;2929;50.810;8.342;2023-02-28T04:11:44;2.37;;;2.10;;
5805;SDS011;2929;50.810;8.342;2023-02-28T04:14:13;3.67;;;2.40;;
5805;SDS011;2929;50.810;8.342;2023-02-28T04:16:41;3.07;;;2.17;;
5805;SDS011;2929;50.810;8.342;2023-02-28T04:19:08;6.33;;;2.97;;
5805;SDS011;2929;50.810;8.342;2023-02-28T04:21:38;5.93;;;2.50;;
5805;SDS011;2929;50.810;8.342;2023-02-28T04:24:06;3.07;;;2.40;;
5805;SDS011;2929;50.810;8.342;2023-02-28T04:26:40;3.80;;;2.50;;
5805;SDS011;2929;50.810;8.342;2023-02-28T04:29:09;2.70;;;2.47;;
5805;SDS011;2929;50.810;8.342;2023-02-28T04:31:37;3.07;;;2.00;;
5805;SDS011;2929;50.810;8.342;2023-02-28T04:34:04;3.67;;;2.70;;
5805;SDS011;2929;50.810;8.342;2023-02-28T04:36:32;4.83;;;2.60;;
5805;SDS011;2929;50.810;8.342;2023-02-28T04:38:59;2.00;;;1.90;;
5805;SDS011;2929;50.810;8.342;2023-02-28T04:41:26;5.13;;;2.60;;
5805;SDS011;2929;50.810;8.342;2023-02-28T04:43:54;4.20;;;2.10;;
5805;SDS011;2929;50.810;8.342;2023-02-28T04:46:22;4.43;;;2.10;;
5805;SDS011;2929;50.810;8.342;2023-02-28T04:48:49;5.03;;;2.63;;
5805;SDS011;2929;50.810;8.342;2023-02-28T04:51:17;2.63;;;2.40;;
5805;SDS011;2929;50.810;8.342;2023-02-28T04:53:45;3.23;;;2.40;;
5805;SDS011;2929;50.810;8.342;2023-02-28T04:56:13;2.90;;;2.40;;
5805;SDS011;2929;50.810;8.342;2023-02-28T04:58:42;2.53;;;2.33;;
5805;SDS011;2929;50.810;8.342;2023-02-28T05:01:17;4.20;;;2.40;;
5805;SDS011;2929;50.810;8.342;2023-02-28T05:03:46;5.60;;;2.10;;
5805;SDS011;2929;50.810;8.342;2023-02-28T05:06:14;6.60;;;3.47;;
5805;SDS011;2929;50.810;8.342;2023-02-28T05:08:41;9.23;;;3.03;;
5805;SDS011;2929;50.810;8.342;2023-02-28T05:11:12;9.63;;;2.60;;
5805;SDS011;2929;50.810;8.342;2023-02-28T05:13:42;5.20;;;2.53;;
5805;SDS011;2929;50.810;8.342;2023-02-28T05:16:10;2.53;;;2.27;;
5805;SDS011;2929;50.810;8.342;2023-02-28T05:18:38;3.70;;;2.70;;
5805;SDS011;2929;50.810;8.342;2023-02-28T05:21:05;6.33;;;2.87;;
5805;SDS011;2929;50.810;8.342;2023-02-28T05:23:32;2.90;;;2.60;;
5805;SDS011;2929;50.810;8.342;2023-02-28T05:25:59;7.43;;;3.90;;
5805;SDS011;2929;50.810;8.342;2023-02-28T05:28:26;4.10;;;3.00;;
5805;SDS011;2929;50.810;8.342;2023-02-28T05:30:53;4.40;;;2.27;;
5805;SDS011;2929;50.810;8.342;2023-02-28T05:33:21;4.60;;;3.37;;
5805;SDS011;2929;50.810;8.342;2023-02-28T05:35:49;3.30;;;2.73;;
5805;SDS011;2929;50.810;8.342;2023-02-28T05:38:16;3.87;;;2.67;;
5805;SDS011;2929;50.810;8.342;2023-02-28T05:40:43;5.77;;;2.87;;
5805;SDS011;2929;50.810;8.342;2023-02-28T05:43:11;9.33;;;3.10;;
5805;SDS011;2929;50.810;8.342;2023-02-28T05:45:38;9.10;;;2.97;;
5805;SDS011;2929;50.810;8.342;2023-02-28T05:48:05;4.37;;;2.63;;
5805;SDS011;2929;50.810;8.342;2023-02-28T05:50:32;3.80;;;2.43;;
5805;SDS011;2929;50.810;8.342;2023-02-28T05:53:01;4.97;;;2.53;;
5805;SDS011;2929;50.810;8.342;2023-02-28T05:55:28;6.77;;;2.83;;
5805;SDS011;2929;50.810;8.342;2023-02-28T05:57:55;5.07;;;2.37;;
5805;SDS011;2929;50.810;8.342;2023-02-28T06:00:22;4.73;;;2.40;;
5805;SDS011;2929;50.810;8.342;2023-02-28T06:02:50;4.00;;;3.00;;
5805;SDS011;2929;50.810;8.342;2023-02-28T06:05:21;4.67;;;3.10;;
5805;SDS011;2929;50.810;8.342;2023-02-28T06:07:48;4.73;;;2.73;;
5805;SDS011;2929;50.810;8.342;2023-02-28T06:10:17;11.10;;;3.27;;
5805;SDS011;2929;50.810;8.342;2023-02-28T06:12:44;6.00;;;2.77;;
5805;SDS011;2929;50.810;8.342;2023-02-28T06:15:12;3.80;;;2.40;;
5805;SDS011;2929;50.810;8.342;2023-02-28T06:17:40;5.37;;;2.50;;
5805;SDS011;2929;50.810;8.342;2023-02-28T06:20:08;2.20;;;2.00;;
5805;SDS011;2929;50.810;8.342;2023-02-28T06:22:38;2.40;;;2.20;;
5805;SDS011;2929;50.810;8.342;2023-02-28T06:25:05;2.10;;;1.57;;
5805;SDS011;2929;50.810;8.342;2023-02-28T06:27:35;5.50;;;2.50;;
5805;SDS011;2929;50.810;8.342;2023-02-28T06:30:02;5.43;;;2.43;;
5805;SDS011;2929;50.810;8.342;2023-02-28T06:32:29;3.83;;;2.50;;
5805;SDS011;2929;50.810;8.342;2023-02-28T06:34:56;3.60;;;1.97;;
5805;SDS011;2929;50.810;8.342;2023-02-28T06:37:23;6.70;;;2.30;;
5805;SDS011;2929;50.810;8.342;2023-02-28T06:39:52;2.97;;;2.30;;
5805;SDS011;2929;50.810;8.342;2023-02-28T06:42:21;3.47;;;1.90;;
5805;SDS011;2929;50.810;8.342;2023-02-28T06:44:51;3.93;;;1.70;;
5805;SDS011;2929;50.810;8.342;2023-02-28T06:47:18;3.27;;;1.83;;
5805;SDS011;2929;50.810;8.342;2023-02-28T06:49:45;2.80;;;2.03;;
5805;SDS011;2929;50.810;8.342;2023-02-28T06:52:12;2.90;;;1.83;;
5805;SDS011;2929;50.810;8.342;2023-02-28T06:54:40;1.73;;;1.63;;
5805;SDS011;2929;50.810;8.342;2023-02-28T06:57:07;2.43;;;1.63;;
5805;SDS011;2929;50.810;8.342;2023-02-28T06:59:35;6.80;;;2.50;;
5805;SDS011;2929;50.810;8.342;2023-02-28T07:02:03;4.73;;;1.90;;
5805;SDS011;2929;50.810;8.342;2023-02-28T07:04:31;3.03;;;2.00;;
5805;SDS011;2929;50.810;8.342;2023-02-28T07:06:58;3.53;;;2.53;;
5805;SDS011;2929;50.810;8.342;2023-02-28T07:09:25;2.93;;;2.03;;
5805;SDS011;2929;50.810;8.342;2023-02-28T07:11:55;1.70;;;1.43;;
5805;SDS011;2929;50.810;8.342;2023-02-28T07:14:22;1.87;;;1.60;;
5805;SDS011;2929;50.810;8.342;2023-02-28T07:16:49;2.37;;;1.80;;
5805;SDS011;2929;50.810;8.342;2023-02-28T07:19:17;2.60;;;1.80;;
5805;SDS011;2929;50.810;8.342;2023-02-28T07:21:45;3.10;;;1.60;;
5805;SDS011;2929;50.810;8.342;2023-02-28T07:24:12;1.97;;;1.50;;
5805;SDS011;2929;50.810;8.342;2023-02-28T07:26:41;2.30;;;1.40;;
5805;SDS011;2929;50.810;8.342;2023-02-28T07:29:08;4.00;;;1.43;;
5805;SDS011;2929;50.810;8.342;2023-02-28T07:31:35;1.30;;;1.20;;
5805;SDS011;2929;50.810;8.342;2023-02-28T07:34:02;1.43;;;1.17;;
5805;SDS011;2929;50.810;8.342;2023-02-28T07:36:31;4.47;;;1.87;;
5805;SDS011;2929;50.810;8.342;2023-02-28T07:38:59;1.87;;;1.60;;
5805;SDS011;2929;50.810;8.342;2023-02-28T07:41:26;2.77;;;1.13;;
5805;SDS011;2929;50.810;8.342;2023-02-28T07:43:54;2.10;;;1.67;;
5805;SDS011;2929;50.810;8.342;2023-02-28T07:46:22;1.60;;;1.23;;
5805;SDS011;2929;50.810;8.342;2023-02-28T07:48:49;1.57;;;1.23;;
5805;SDS011;2929;50.810;8.342;2023-02-28T07:51:18;1.70;;;1.50;;
5805;SDS011;2929;50.810;8.342;2023-02-28T07:53:56;2.37;;;1.70;;
5805;SDS011;2929;50.810;8.342;2023-02-28T07:57:27;1.27;;;1.17;;
5805;SDS011;2929;50.810;8.342;2023-02-28T08:03:42;6.20;;;1.40;;
5805;SDS011;2929;50.810;8.342;2023-02-28T08:06:15;2.17;;;1.27;;
5805;SDS011;2929;50.810;8.342;2023-02-28T08:08:44;2.53;;;1.37;;
5805;SDS011;2929;50.810;8.342;2023-02-28T08:11:12;2.67;;;1.40;;
5805;SDS011;2929;50.810;8.342;2023-02-28T08:13:39;2.07;;;1.60;;
5805;SDS011;2929;50.810;8.342;2023-02-28T08:16:09;3.70;;;1.83;;
5805;SDS011;2929;50.810;8.342;2023-02-28T08:18:36;2.80;;;1.67;;
5805;SDS011;2929;50.810;8.342;2023-02-28T08:21:07;1.77;;;1.30;;
5805;SDS011;2929;50.810;8.342;2023-02-28T08:23:34;1.57;;;1.30;;
5805;SDS011;2929;50.810;8.342;2023-02-28T08:26:01;2.13;;;1.47;;
5805;SDS011;2929;50.810;8.342;2023-02-28T08:28:31;1.90;;;1.57;;
5805;SDS011;2929;50.810;8.342;2023-02-28T08:30:58;5.00;;;1.90;;
5805;SDS011;2929;50.810;8.342;2023-02-28T08:33:25;2.83;;;1.40;;
5805;SDS011;2929;50.810;8.342;2023-02-28T08:35:53;3.73;;;1.53;;
5805;SDS011;2929;50.810;8.342;2023-02-28T08:38:21;2.37;;;1.80;;
5805;SDS011;2929;50.810;8.342;2023-02-28T08:40:48;1.67;;;1.33;;
5805;SDS011;2929;50.810;8.342;2023-02-28T08:43:15;3.27;;;1.47;;
5805;SDS011;2929;50.810;8.342;2023-02-28T08:45:44;1.30;;;1.17;;
5805;SDS011;2929;50.810;8.342;2023-02-28T08:48:11;2.40;;;1.43;;
5805;SDS011;2929;50.810;8.342;2023-02-28T08:50:38;1.80;;;1.03;;
5805;SDS011;2929;50.810;8.342;2023-02-28T08:53:05;1.63;;;1.53;;
5805;SDS011;2929;50.810;8.342;2023-02-28T08:55:32;1.63;;;1.47;;
5805;SDS011;2929;50.810;8.342;2023-02-28T08:57:59;4.03;;;1.80;;
5805;SDS011;2929;50.810;8.342;2023-02-28T09:00:27;3.43;;;1.43;;
5805;SDS011;2929;50.810;8.342;2023-02-28T09:02:56;1.83;;;1.20;;
5805;SDS011;2929;50.810;8.342;2023-02-28T09:05:23;2.17;;;1.13;;
5805;SDS011;2929;50.810;8.342;2023-02-28T09:07:50;3.97;;;1.80;;
5805;SDS011;2929;50.810;8.342;2023-02-28T09:10:17;5.50;;;1.30;;
5805;SDS011;2929;50.810;8.342;2023-02-28T09:12:45;2.20;;;1.50;;
5805;SDS011;2929;50.810;8.342;2023-02-28T09:15:12;1.70;;;1.60;;
5805;SDS011;2929;50.810;8.342;2023-02-28T09:17:39;1.80;;;1.67;;
5805;SDS011;2929;50.810;8.342;2023-02-28T09:20:08;1.70;;;1.30;;
5805;SDS011;2929;50.810;8.342;2023-02-28T09:22:36;10.83;;;2.00;;
5805;SDS011;2929;50.810;8.342;2023-02-28T09:25:04;1.43;;;1.30;;
5805;SDS011;2929;50.810;8.342;2023-02-28T09:27:31;2.73;;;1.90;;
5805;SDS011;2929;50.810;8.342;2023-02-28T09:29:58;1.90;;;1.63;;
5805;SDS011;2929;50.810;8.342;2023-02-28T09:32:25;5.80;;;1.97;;
5805;SDS011;2929;50.810;8.342;2023-02-28T09:34:52;2.47;;;2.00;;
5805;SDS011;2929;50.810;8.342;2023-02-28T09:37:21;2.97;;;2.10;;
5805;SDS011;2929;50.810;8.342;2023-02-28T09:39:48;8.13;;;1.90;;
5805;SDS011;2929;50.810;8.342;2023-02-28T09:42:18;1.60;;;1.50;;
5805;SDS011;2929;50.810;8.342;2023-02-28T09:44:50;1.83;;;1.60;;
5805;SDS011;2929;50.810;8.342;2023-02-28T09:47:18;2.93;;;1.60;;
5805;SDS011;2929;50.810;8.342;2023-02-28T09:49:53;2.20;;;2.00;;
5805;SDS011;2929;50.810;8.342;2023-02-28T09:52:24;3.17;;;2.43;;
5805;SDS011;2929;50.810;8.342;2023-02-28T09:54:56;2.50;;;1.93;;
5805;SDS011;2929;50.810;8.342;2023-02-28T09:57:32;4.20;;;1.60;;
5805;SDS011;2929;50.810;8.342;2023-02-28T10:00:06;1.90;;;1.60;;
5805;SDS011;2929;50.810;8.342;2023-02-28T10:02:46;2.03;;;1.83;;
5805;SDS011;2929;50.810;8.342;2023-02-28T10:05:23;1.70;;;1.60;;
5805;SDS011;2929;50.810;8.342;2023-02-28T10:07:58;3.23;;;2.10;;
5805;SDS011;2929;50.810;8.342;2023-02-28T10:10:32;4.30;;;2.20;;
5805;SDS011;2929;50.810;8.342;2023-02-28T10:13:04;2.50;;;2.03;;
5805;SDS011;2929;50.810;8.342;2023-02-28T10:15:41;2.20;;;2.00;;
5805;SDS011;2929;50.810;8.342;2023-02-28T10:18:10;3.93;;;1.80;;
5805;SDS011;2929;50.810;8.342;2023-02-28T10:20:40;2.13;;;1.93;;
5805;SDS011;2929;50.810;8.342;2023-02-28T10:23:12;2.40;;;2.10;;
5805;SDS011;2929;50.810;8.342;2023-02-28T10:25:47;5.87;;;2.63;;
5805;SDS011;2929;50.810;8.342;2023-02-28T10:28:20;2.47;;;2.20;;
5805;SDS011;2929;50.810;8.342;2023-02-28T10:30:48;2.70;;;2.13;;
5805;SDS011;2929;50.810;8.342;2023-02-28T10:33:17;2.50;;;1.73;;
5805;SDS011;2929;50.810;8.342;2023-02-28T10:35:48;3.50;;;2.20;;
5805;SDS011;2929;50.810;8.342;2023-02-28T10:38:17;5.50;;;2.50;;
5805;SDS011;2929;50.810;8.342;2023-02-28T10:40:46;5.97;;;2.20;;
5805;SDS011;2929;50.810;8.342;2023-02-28T10:43:20;2.83;;;2.20;;
5805;SDS011;2929;50.810;8.342;2023-02-28T10:45:54;2.50;;;2.07;;
5805;SDS011;2929;50.810;8.342;2023-02-28T10:48:30;3.50;;;2.60;;
5805;SDS011;2929;50.810;8.342;2023-02-28T10:51:00;5.20;;;1.90;;
5805;SDS011;2929;50.810;8.342;2023-02-28T10:53:34;3.10;;;2.07;;
5805;SDS011;2929;50.810;8.342;2023-02-28T10:56:05;3.33;;;2.37;;
5805;SDS011;2929;50.810;8.342;2023-02-28T10:58:44;2.40;;;2.17;;
5805;SDS011;2929;50.810;8.342;2023-02-28T11:01:21;2.20;;;2.00;;
5805;SDS011;2929;50.810;8.342;2023-02-28T11:03:50;2.87;;;2.40;;
5805;SDS011;2929;50.810;8.342;2023-02-28T11:06:19;3.63;;;2.27;;
5805;SDS011;2929;50.810;8.342;2023-02-28T11:08:50;4.00;;;2.50;;
5805;SDS011;2929;50.810;8.342;2023-02-28T11:11:19;16.93;;;2.83;;
5805;SDS011;2929;50.810;8.342;2023-02-28T11:13:50;2.80;;;2.30;;
5805;SDS011;2929;50.810;8.342;2023-02-28T11:16:19;6.00;;;2.70;;
5805;SDS011;2929;50.810;8.342;2023-02-28T11:18:48;3.80;;;2.17;;
5805;SDS011;2929;50.810;8.342;2023-02-28T11:21:19;3.27;;;2.53;;
5805;SDS011;2929;50.810;8.342;2023-02-28T11:23:51;12.40;;;2.80;;
5805;SDS011;2929;50.810;8.342;2023-02-28T11:26:38;4.23;;;2.83;;
5805;SDS011;2929;50.810;8.342;2023-02-28T11:29:11;4.03;;;2.73;;
5805;SDS011;2929;50.810;8.342;2023-02-28T11:31:46;3.33;;;2.70;;
5805;SDS011;2929;50.810;8.342;2023-02-28T11:34:29;6.33;;;2.90;;
5805;SDS011;2929;50.810;8.342;2023-02-28T11:36:57;5.70;;;3.33;;
5805;SDS011;2929;50.810;8.342;2023-02-28T11:39:31;3.53;;;3.20;;
5805;SDS011;2929;50.810;8.342;2023-02-28T11:42:05;3.70;;;2.93;;
5805;SDS011;2929;50.810;8.342;2023-02-28T11:44:45;4.37;;;3.20;;
5805;SDS011;2929;50.810;8.342;2023-02-28T11:47:24;5.33;;;3.50;;
5805;SDS011;2929;50.810;8.342;2023-02-28T11:50:03;5.07;;;3.57;;
5805;SDS011;2929;50.810;8.342;2023-02-28T11:52:42;4.33;;;3.10;;
5805;SDS011;2929;50.810;8.342;2023-02-28T11:55:18;4.83;;;2.90;;
5805;SDS011;2929;50.810;8.342;2023-02-28T12:03:42;4.97;;;3.07;;
5805;SDS011;2929;50.810;8.342;2023-02-28T12:06:16;7.70;;;3.20;;
5805;SDS011;2929;50.810;8.342;2023-02-28T12:08:50;5.63;;;3.53;;
5805;SDS011;2929;50.810;8.342;2023-02-28T12:11:43;5.23;;;3.33;;
5805;SDS011;2929;50.810;8.342;2023-02-28T12:14:22;10.30;;;5.30;;
5805;SDS011;2929;50.810;8.342;2023-02-28T12:17:01;7.00;;;4.00;;
5805;SDS011;2929;50.810;8.342;2023-02-28T12:19:41;8.43;;;4.13;;
5805;SDS011;2929;50.810;8.342;2023-02-28T12:22:19;12.70;;;6.33;;
5805;SDS011;2929;50.810;8.342;2023-02-28T12:24:59;6.37;;;4.37;;
5805;SDS011;2929;50.810;8.342;2023-02-28T12:27:44;4.73;;;3.40;;
5805;SDS011;2929;50.810;8.342;2023-02-28T12:30:14;5.03;;;3.50;;
5805;SDS011;2929;50.810;8.342;2023-02-28T12:32:45;5.63;;;3.73;;
5805;SDS011;2929;50.810;8.342;2023-02-28T12:35:17;4.57;;;3.23;;
5805;SDS011;2929;50.810;8.342;2023-02-28T12:37:50;4.07;;;3.60;;
5805;SDS011;2929;50.810;8.342;2023-02-28T12:40:22;8.57;;;4.07;;
5805;SDS011;2929;50.810;8.342;2023-02-28T12:42:55;5.90;;;3.73;;
5805;SDS011;2929;50.810;8.342;2023-02-28T12:45:27;4.70;;;3.60;;
5805;SDS011;2929;50.810;8.342;2023-02-28T12:48:02;6.17;;;3.63;;
5805;SDS011;2929;50.810;8.342;2023-02-28T12:50:33;4.33;;;3.50;;
5805;SDS011;2929;50.810;8.342;2023-02-28T12:53:02;6.30;;;3.47;;
5805;SDS011;2929;50.810;8.342;2023-02-28T12:55:34;5.03;;;3.50;;
5805;SDS011;2929;50.810;8.342;2023-02-28T12:58:13;3.63;;;3.30;;
5805;SDS011;2929;50.810;8.342;2023-02-28T13:01:02;6.90;;;3.80;;
5805;SDS011;2929;50.810;8.342;2023-02-28T13:03:49;3.73;;;3.20;;
5805;SDS011;2929;50.810;8.342;2023-02-28T13:06:30;7.00;;;3.33;;
5805;SDS011;2929;50.810;8.342;2023-02-28T13:09:19;4.30;;;3.70;;
5805;SDS011;2929;50.810;8.342;2023-02-28T13:11:47;3.60;;;3.23;;
5805;SDS011;2929;50.810;8.342;2023-02-28T13:14:20;4.60;;;3.30;;
5805;SDS011;2929;50.810;8.342;2023-02-28T13:16:56;5.20;;;3.67;;
5805;SDS011;2929;50.810;8.342;2023-02-28T13:19:26;5.43;;;3.70;;
5805;SDS011;2929;50.810;8.342;2023-02-28T13:21:56;5.20;;;3.30;;
5805;SDS011;2929;50.810;8.342;2023-02-28T13:24:38;16.10;;;4.57;;
5805;SDS011;2929;50.810;8.342;2023-02-28T13:27:12;6.37;;;4.33;;
5805;SDS011;2929;50.810;8.342;2023-02-28T13:29:59;6.03;;;3.47;;
5805;SDS011;2929;50.810;8.342;2023-02-28T13:32:28;3.33;;;3.03;;
5805;SDS011;2929;50.810;8.342;2023-02-28T13:35:14;7.03;;;3.53;;
5805;SDS011;2929;50.810;8.342;2023-02-28T13:44:11;4.67;;;3.33;;
5805;SDS011;2929;50.810;8.342;2023-02-28T13:49:44;4.17;;;3.77;;
5805;SDS011;2929;50.810;8.342;2023-02-28T13:52:12;4.33;;;3.67;;
5805;SDS011;2929;50.810;8.342;2023-02-28T13:54:58;6.47;;;3.43;;
5805;SDS011;2929;50.810;8.342;2023-02-28T13:57:44;6.20;;;3.53;;
5805;SDS011;2929;50.810;8.342;2023-02-28T14:00:28;5.87;;;3.40;;
5805;SDS011;2929;50.810;8.342;2023-02-28T14:03:11;5.00;;;3.47;;
5805;SDS011;2929;50.810;8.342;2023-02-28T14:05:46;12.33;;;3.53;;
5805;SDS011;2929;50.810;8.342;2023-02-28T14:08:33;6.77;;;3.97;;
5805;SDS011;2929;50.810;8.342;2023-02-28T14:11:02;3.97;;;3.33;;
5805;SDS011;2929;50.810;8.342;2023-02-28T14:13:39;5.20;;;3.43;;
5805;SDS011;2929;50.810;8.342;2023-02-28T14:16:11;16.63;;;8.90;;
5805;SDS011;2929;50.810;8.342;2023-02-28T14:18:41;13.37;;;7.47;;
5805;SDS011;2929;50.810;8.342;2023-02-28T14:21:20;6.47;;;4.50;;
5805;SDS011;2929;50.810;8.342;2023-02-28T14:27:24;5.03;;;3.40;;
5805;SDS011;2929;50.810;8.342;2023-02-28T14:30:04;10.93;;;5.00;;
5805;SDS011;2929;50.810;8.342;2023-02-28T14:33:04;3.80;;;2.87;;
5805;SDS011;2929;50.810;8.342;2023-02-28T14:35:44;6.97;;;3.97;;
5805;SDS011;2929;50.810;8.342;2023-02-28T14:38:31;4.40;;;3.50;;
5805;SDS011;2929;50.810;8.342;2023-02-28T14:41:03;5.10;;;3.60;;
5805;SDS011;2929;50.810;8.342;2023-02-28T14:43:33;3.33;;;3.03;;
5805;SDS011;2929;50.810;8.342;2023-02-28T14:46:00;4.83;;;3.00;;
5805;SDS011;2929;50.810;8.342;2023-02-28T14:48:30;4.60;;;3.30;;
5805;SDS011;2929;50.810;8.342;2023-02-28T14:50:59;4.60;;;3.70;;
5805;SDS011;2929;50.810;8.342;2023-02-28T14:53:28;4.83;;;3.90;;
5805;SDS011;2929;50.810;8.342;2023-02-28T14:56:03;15.13;;;3.63;;
5805;SDS011;2929;50.810;8.342;2023-02-28T14:58:32;6.20;;;3.20;;
5805;SDS011;2929;50.810;8.342;2023-02-28T15:01:00;5.20;;;3.73;;
5805;SDS011;2929;50.810;8.342;2023-02-28T15:03:30;22.53;;;4.93;;
5805;SDS011;2929;50.810;8.342;2023-02-28T15:05:59;4.00;;;3.60;;
5805;SDS011;2929;50.810;8.342;2023-02-28T15:08:28;3.67;;;3.30;;
5805;SDS011;2929;50.810;8.342;2023-02-28T15:11:01;8.90;;;3.20;;
5805;SDS011;2929;50.810;8.342;2023-02-28T15:13:35;4.80;;;3.30;;
5805;SDS011;2929;50.810;8.342;2023-02-28T15:16:05;10.60;;;3.60;;
5805;SDS011;2929;50.810;8.342;2023-02-28T15:18:40;4.30;;;3.43;;
5805;SDS011;2929;50.810;8.342;2023-02-28T15:21:15;4.53;;;3.20;;
5805;SDS011;2929;50.810;8.342;2023-02-28T15:23:45;8.10;;;3.60;;
5805;SDS011;2929;50.810;8.342;2023-02-28T15:26:15;8.70;;;3.70;;
5805;SDS011;2929;50.810;8.342;2023-02-28T15:28:45;6.53;;;3.77;;
5805;SDS011;2929;50.810;8.342;2023-02-28T15:31:20;8.10;;;3.80;;
5805;SDS011;2929;50.810;8.342;2023-02-28T15:33:53;6.37;;;3.73;;
5805;SDS011;2929;50.810;8.342;2023-02-28T15:36:23;5.73;;;3.73;;
5805;SDS011;2929;50.810;8.342;2023-02-28T15:38:55;3.33;;;2.87;;
5805;SDS011;2929;50.810;8.342;2023-02-28T15:41:24;2.83;;;2.47;;
5805;SDS011;2929;50.810;8.342;2023-02-28T15:46:44;5.00;;;3.90;;
5805;SDS011;2929;50.810;8.342;2023-02-28T15:49:20;10.57;;;4.33;;
5805;SDS011;2929;50.810;8.342;2023-02-28T15:51:49;5.43;;;3.90;;
5805;SDS011;2929;50.810;8.342;2023-02-28T15:54:20;5.10;;;3.10;;
5805;SDS011;2929;50.810;8.342;2023-02-28T15:56:53;5.00;;;3.37;;
5805;SDS011;2929;50.810;8.342;2023-02-28T15:59:22;7.30;;;3.30;;
5805;SDS011;2929;50.810;8.342;2023-02-28T16:02:02;3.50;;;3.20;;
5805;SDS011;2929;50.810;8.342;2023-02-28T16:04:55;5.97;;;3.27;;
5805;SDS011;2929;50.810;8.342;2023-02-28T16:07:25;4.00;;;3.53;;
5805;SDS011;2929;50.810;8.342;2023-02-28T16:09:54;4.90;;;3.17;;
5805;SDS011;2929;50.810;8.342;2023-02-28T16:12:24;5.03;;;3.83;;